createdAt,value
2017-07-31T07:53:10.802Z,1014.466
2017-07-31T07:58:10.506Z,1014.557
2017-07-31T08:04:29.761Z,1014.626
2017-07-31T08:08:55.992Z,1014.651
2017-07-31T08:13:34.017Z,1014.749
2017-07-31T08:18:00.698Z,1014.800
2017-07-31T08:20:45.861Z,1014.792
2017-07-31T08:29:31.012Z,1014.834
2017-07-31T08:36:57.893Z,1014.880
2017-07-31T08:42:36.681Z,1014.813
2017-07-31T08:45:31.637Z,1014.853
2017-07-31T08:48:26.907Z,1014.836
2017-07-31T08:51:22.311Z,1014.835
2017-07-31T08:54:17.625Z,1014.842
2017-07-31T08:57:13.013Z,1014.876
2017-07-31T09:00:08.576Z,1014.909
2017-07-31T09:03:04.118Z,1014.903
2017-07-31T09:05:59.739Z,1014.948
2017-07-31T09:08:55.349Z,1014.935
2017-07-31T09:11:50.875Z,1014.976
2017-07-31T09:14:46.452Z,1014.989
2017-07-31T09:17:42.052Z,1014.993
2017-07-31T09:20:37.748Z,1014.962
2017-07-31T09:23:33.570Z,1014.970
2017-07-31T09:26:29.156Z,1015.014
2017-07-31T09:29:24.876Z,1014.974
2017-07-31T09:32:20.590Z,1014.958
2017-07-31T09:35:16.387Z,1014.983
2017-07-31T09:38:12.117Z,1014.891
2017-07-31T09:41:08.046Z,1014.948
2017-07-31T09:44:03.877Z,1015.067
2017-07-31T09:46:59.768Z,1015.022
2017-07-31T09:49:55.633Z,1015.080
2017-07-31T09:52:51.388Z,1015.151
2017-07-31T09:55:47.168Z,1015.104
2017-07-31T09:58:43.023Z,1015.137
2017-07-31T10:01:38.907Z,1015.098
2017-07-31T10:04:34.843Z,1015.192
2017-07-31T10:07:30.707Z,1015.236
2017-07-31T10:10:26.645Z,1015.247
2017-07-31T10:13:22.378Z,1015.279
2017-07-31T10:16:18.386Z,1015.183
2017-07-31T10:19:14.282Z,1015.134
2017-07-31T10:22:10.468Z,1015.236
2017-07-31T10:28:02.322Z,1015.273
2017-07-31T10:30:58.132Z,1015.340
2017-07-31T10:33:54.015Z,1015.338
2017-07-31T10:36:49.806Z,1015.314
2017-07-31T10:39:45.526Z,1015.366
2017-07-31T10:42:41.171Z,1015.401
2017-07-31T10:45:36.625Z,1015.394
2017-07-31T10:48:32.220Z,1015.380
2017-07-31T10:51:27.837Z,1015.441
2017-07-31T10:54:23.418Z,1015.470
2017-07-31T10:57:18.846Z,1015.547
2017-07-31T11:00:14.405Z,1015.581
2017-07-31T11:03:09.904Z,1015.539
2017-07-31T11:06:05.567Z,1015.586
2017-07-31T11:09:01.046Z,1015.564
2017-07-31T11:11:56.564Z,1015.595
2017-07-31T11:14:51.978Z,1015.590
2017-07-31T11:17:47.329Z,1015.602
2017-07-31T11:20:42.846Z,1015.556
2017-07-31T11:23:38.236Z,1015.507
2017-07-31T11:26:33.478Z,1015.426
2017-07-31T11:29:28.756Z,1015.440
2017-07-31T11:32:24.101Z,1015.374
2017-07-31T11:35:19.304Z,1015.440
2017-07-31T11:38:14.645Z,1015.413
2017-07-31T11:41:09.878Z,1015.347
2017-07-31T11:44:05.133Z,1015.339
2017-07-31T11:47:00.373Z,1015.370
2017-07-31T11:49:55.711Z,1015.398
2017-07-31T11:53:13.660Z,1015.497
2017-07-31T11:56:01.990Z,1015.485
2017-07-31T11:58:57.143Z,1015.442
2017-07-31T12:01:52.439Z,1015.389
2017-07-31T12:04:47.572Z,1015.372
2017-07-31T12:07:42.837Z,1015.340
2017-07-31T12:10:38.082Z,1015.377
2017-07-31T12:13:33.283Z,1015.367
2017-07-31T12:16:28.350Z,1015.230
2017-07-31T12:19:23.572Z,1015.231
2017-07-31T12:22:18.598Z,1015.244
2017-07-31T12:25:13.778Z,1015.236
2017-07-31T12:28:08.879Z,1015.245
2017-07-31T12:31:04.006Z,1015.195
2017-07-31T12:33:59.334Z,1015.159
2017-07-31T12:36:54.655Z,1015.142
2017-07-31T12:39:49.851Z,1015.214
2017-07-31T12:42:45.149Z,1015.213
2017-07-31T12:45:40.412Z,1015.275
2017-07-31T12:48:35.766Z,1015.190
2017-07-31T12:51:30.866Z,1015.223
2017-07-31T12:54:26.214Z,1015.251
2017-07-31T12:57:21.653Z,1015.242
2017-07-31T13:00:16.800Z,1015.283
2017-07-31T13:03:11.961Z,1015.301
2017-07-31T13:06:07.169Z,1015.254
2017-07-31T13:09:02.334Z,1015.279
2017-07-31T13:11:57.332Z,1015.206
2017-07-31T13:14:52.330Z,1015.210
2017-07-31T13:17:47.370Z,1015.233
2017-07-31T13:20:42.462Z,1015.221
2017-07-31T13:23:37.488Z,1015.275
2017-07-31T13:26:32.339Z,1015.367
2017-07-31T13:29:27.540Z,1015.328
2017-07-31T13:32:22.633Z,1015.421
2017-07-31T13:35:17.636Z,1015.341
2017-07-31T13:38:12.713Z,1015.338
2017-07-31T13:41:07.796Z,1015.255
2017-07-31T13:44:02.685Z,1015.199
2017-07-31T13:46:57.720Z,1015.289
2017-07-31T13:49:52.995Z,1015.276
2017-07-31T13:52:47.970Z,1015.253
2017-07-31T13:55:43.028Z,1015.238
2017-07-31T13:58:38.177Z,1015.216
2017-07-31T14:01:33.431Z,1015.233
2017-07-31T14:04:28.681Z,1015.384
2017-07-31T14:07:23.860Z,1015.385
2017-07-31T14:10:19.276Z,1015.283
2017-07-31T14:16:09.701Z,1015.173
2017-07-31T14:19:04.858Z,1015.025
2017-07-31T14:22:00.050Z,1014.995
2017-07-31T14:24:55.295Z,1014.971
2017-07-31T14:27:50.486Z,1014.864
2017-07-31T14:30:45.740Z,1014.882
2017-07-31T14:33:40.994Z,1014.971
2017-07-31T14:36:36.231Z,1014.899
2017-07-31T14:39:31.453Z,1014.940
2017-07-31T14:42:26.697Z,1014.897
2017-07-31T14:45:21.954Z,1014.830
2017-07-31T14:48:17.229Z,1014.915
2017-07-31T14:51:12.501Z,1014.889
2017-07-31T14:54:07.682Z,1014.810
2017-07-31T14:57:03.229Z,1014.828
2017-07-31T14:59:58.488Z,1014.770
2017-07-31T15:02:53.744Z,1014.793
2017-07-31T15:08:44.141Z,1014.884
2017-07-31T15:11:39.370Z,1014.963
2017-07-31T15:14:34.742Z,1014.861
2017-07-31T15:17:30.038Z,1014.868
2017-07-31T15:20:25.328Z,1014.829
2017-07-31T15:23:20.668Z,1014.833
2017-07-31T15:26:15.895Z,1014.741
2017-07-31T15:29:11.148Z,1014.694
2017-07-31T15:32:06.462Z,1014.761
2017-07-31T15:35:01.769Z,1014.761
2017-07-31T15:37:57.084Z,1014.718
2017-07-31T15:40:52.423Z,1014.752
2017-07-31T15:43:47.648Z,1014.747
2017-07-31T15:46:42.997Z,1014.769
2017-07-31T15:49:38.261Z,1014.714
2017-07-31T15:52:33.463Z,1014.632
2017-07-31T15:55:28.673Z,1014.673
2017-07-31T15:58:24.017Z,1014.695
2017-07-31T16:01:19.365Z,1014.701
2017-07-31T16:07:09.818Z,1014.679
2017-07-31T16:10:05.082Z,1014.657
2017-07-31T16:13:00.246Z,1014.597
2017-07-31T16:15:55.526Z,1014.652
2017-07-31T16:18:50.775Z,1014.583
2017-07-31T16:21:46.073Z,1014.496
2017-07-31T16:24:41.319Z,1014.492
2017-07-31T16:27:36.520Z,1014.496
2017-07-31T16:30:31.967Z,1014.454
2017-07-31T16:33:27.140Z,1014.467
2017-07-31T16:36:22.475Z,1014.490
2017-07-31T16:39:17.643Z,1014.494
2017-07-31T16:42:12.908Z,1014.487
2017-07-31T16:45:08.165Z,1014.437
2017-07-31T16:48:03.426Z,1014.366
2017-07-31T16:50:58.552Z,1014.322
2017-07-31T16:53:53.807Z,1014.321
2017-07-31T16:56:49.267Z,1014.328
2017-07-31T16:59:44.434Z,1014.312
2017-07-31T17:02:39.689Z,1014.337
2017-07-31T17:05:35.013Z,1014.317
2017-07-31T17:08:30.398Z,1014.346
2017-07-31T17:14:21.062Z,1014.388
2017-07-31T17:17:16.455Z,1014.341
2017-07-31T17:20:11.679Z,1014.309
2017-07-31T17:23:06.977Z,1014.323
2017-07-31T17:26:02.142Z,1014.319
2017-07-31T17:28:57.415Z,1014.339
2017-07-31T17:31:52.831Z,1014.426
2017-07-31T17:34:47.928Z,1014.350
2017-07-31T17:37:43.054Z,1014.389
2017-07-31T17:40:38.589Z,1014.384
2017-07-31T17:43:33.967Z,1014.350
2017-07-31T17:46:29.273Z,1014.285
2017-07-31T17:49:24.521Z,1014.243
2017-07-31T17:52:19.826Z,1014.260
2017-07-31T17:55:14.995Z,1014.225
2017-07-31T17:58:10.265Z,1014.201
2017-07-31T18:01:05.565Z,1014.209
2017-07-31T18:04:00.856Z,1014.265
2017-07-31T18:06:56.111Z,1014.231
2017-07-31T18:09:51.443Z,1014.262
2017-07-31T18:12:46.708Z,1014.290
2017-07-31T18:15:42.094Z,1014.331
2017-07-31T18:18:37.301Z,1014.333
2017-07-31T18:21:32.568Z,1014.329
2017-07-31T18:24:27.697Z,1014.302
2017-07-31T18:27:22.928Z,1014.306
2017-07-31T18:30:18.179Z,1014.262
2017-07-31T18:33:13.388Z,1014.282
2017-07-31T18:36:08.668Z,1014.278
2017-07-31T18:39:03.906Z,1014.306
2017-07-31T18:41:59.340Z,1014.345
2017-07-31T18:47:49.684Z,1014.315
2017-07-31T18:50:45.106Z,1014.343
2017-07-31T18:53:40.302Z,1014.342
2017-07-31T18:59:30.766Z,1014.273
2017-07-31T19:02:26.053Z,1014.311
2017-07-31T19:05:21.323Z,1014.411
2017-07-31T19:08:16.455Z,1014.435
2017-07-31T19:17:02.180Z,1014.413
2017-07-31T19:19:57.503Z,1014.534
2017-07-31T19:22:52.703Z,1014.518
2017-07-31T19:25:48.020Z,1014.520
2017-07-31T19:28:43.390Z,1014.456
2017-07-31T19:34:34.014Z,1014.498
2017-07-31T19:37:29.154Z,1014.571
2017-07-31T19:40:24.279Z,1014.623
2017-07-31T19:43:19.532Z,1014.696
2017-07-31T19:46:14.843Z,1014.715
2017-07-31T19:49:10.210Z,1014.737
2017-07-31T19:52:05.799Z,1014.767
2017-07-31T19:55:01.056Z,1014.789
2017-07-31T19:57:56.255Z,1014.821
2017-07-31T20:00:51.488Z,1014.821
2017-07-31T20:03:46.644Z,1014.862
2017-07-31T20:06:41.860Z,1014.874
2017-07-31T20:09:37.111Z,1014.870
2017-07-31T20:12:32.417Z,1014.856
2017-07-31T20:15:27.622Z,1014.936
2017-07-31T20:18:22.832Z,1014.950
2017-07-31T20:21:17.941Z,1015.007
2017-07-31T20:24:13.190Z,1015.036
2017-07-31T20:27:08.510Z,1014.978
2017-07-31T20:30:03.783Z,1014.970
2017-07-31T20:32:59.056Z,1014.922
2017-07-31T20:35:54.352Z,1014.897
2017-07-31T20:38:49.713Z,1014.893
2017-07-31T20:41:44.815Z,1014.888
2017-07-31T20:44:40.100Z,1014.872
2017-07-31T20:47:35.412Z,1014.853
2017-07-31T20:50:30.750Z,1014.804
2017-07-31T20:53:25.900Z,1014.808
2017-07-31T20:56:21.289Z,1014.780
2017-07-31T20:59:16.544Z,1014.794
2017-07-31T21:02:12.134Z,1014.801
2017-07-31T21:05:07.331Z,1014.813
2017-07-31T21:08:02.677Z,1014.787
2017-07-31T21:10:57.984Z,1014.799
2017-07-31T21:13:53.213Z,1014.897
2017-07-31T21:16:48.601Z,1014.948
2017-07-31T21:19:43.866Z,1014.979
2017-07-31T21:22:39.203Z,1015.018
2017-07-31T21:25:34.399Z,1015.002
2017-07-31T21:28:29.732Z,1014.993
2017-07-31T21:31:25.125Z,1014.986
2017-07-31T21:34:20.299Z,1014.974
2017-07-31T21:37:15.548Z,1014.956
2017-07-31T21:40:10.821Z,1014.971
2017-07-31T21:43:06.104Z,1014.998
2017-07-31T21:46:01.432Z,1015.011
2017-07-31T21:48:56.660Z,1014.973
2017-07-31T21:51:52.065Z,1014.960
2017-07-31T21:54:47.230Z,1014.992
2017-07-31T21:57:42.534Z,1014.971
2017-07-31T22:03:33.159Z,1014.936
2017-07-31T22:06:28.485Z,1014.949
2017-07-31T22:09:23.752Z,1014.971
2017-07-31T22:12:19.008Z,1014.925
2017-07-31T22:15:14.305Z,1014.915
2017-07-31T22:18:09.666Z,1014.936
2017-07-31T22:21:04.961Z,1014.981
2017-07-31T22:24:00.387Z,1015.045
2017-07-31T22:26:55.628Z,1015.050
2017-07-31T22:29:50.824Z,1015.061
2017-07-31T22:32:46.183Z,1015.032
2017-07-31T22:35:41.391Z,1015.009
2017-07-31T22:38:36.608Z,1014.981
2017-07-31T22:41:31.816Z,1015.006
2017-07-31T22:44:27.026Z,1015.059
2017-07-31T22:47:22.301Z,1015.072
2017-07-31T22:50:17.562Z,1015.098
2017-07-31T22:53:12.826Z,1015.049
2017-07-31T22:56:08.075Z,1015.045
2017-07-31T22:59:03.282Z,1015.069
2017-07-31T23:01:58.500Z,1015.086
2017-07-31T23:06:46.735Z,1015.114
2017-07-31T23:11:02.323Z,1015.097
2017-07-31T23:16:59.498Z,1015.146
2017-07-31T23:19:43.901Z,1015.139
2017-07-31T23:51:49.778Z,1015.141
